Canyonlands, Utah
Current Conditions -  °F | °C
As of 12:53 PM on Sunday 23 Nov 2014 (Local Time) from KCNY Reporting Station
Clear Clear  
Wind Chill: 39°   Ceiling: Unl
Heat Index: 46°   Visibility: 10mi
Dew Point: 15°   Wind: 18mph
Humidity: 29%   Direction: 310°NW
Pressure: 30.02"   Gusts: NA
Location:  38.6903°N, 109.256°W
Report Text: KCNY 231953Z AUTO 31016KT 10SM CLR 08/M09 A3002 RMK AO2 SLP161 T00781094
Loading
Personal Weather Stations






























Interactive Weather Map New forecast layout! Learn more

10-Day Weather Forecast

Advertisements
Track Severe Weather on mobile